Time;durP1;ratioP1;P1;durP2;ratioP2;P2;SDS_P1;SDS_P2;PMS_P1;PMS_P2;Temp;Humidity;BMP_temperature;BMP_pressure;BME280_temperature;BME280_humidity;BME280_pressure;Samples;Min_cycle;Max_cycle;Signal;HPM_P1;HPM_P2
2022/09/08 00:00:13;;;;;;;;;;;;;;;22.26;27.26;98303.53;5037663;28;1048;-77
2022/09/08 00:02:39;;;;;;;;;;;;;;;22.31;27.12;98300.97;5003185;28;966;-78
2022/09/08 00:05:04;;;;;;;;;;;;;;;22.12;27.35;98290.50;5019019;28;1045;-78
2022/09/08 00:07:32;;;;;;;;;;;;;;;21.98;27.69;98294.44;5020770;28;814;-79
2022/09/08 00:09:57;;;;;;;;;;;;;;;21.95;27.63;98300.19;5004017;28;929;-78
2022/09/08 00:12:24;;;;;;;;;;;;;;;21.94;27.59;98293.72;5037710;28;1036;-78
2022/09/08 00:14:50;;;;;;;;;;;;;;;21.88;27.54;98281.31;5037283;28;911;-77
2022/09/08 00:17:15;;;;;;;;;;;;;;;21.80;27.88;98283.50;5037438;28;1902;-77
2022/09/08 00:19:41;;;;;;;;;;;;;;;21.75;27.66;98281.19;5020244;28;841;-78
2022/09/08 00:22:06;;;;;;;;;;;;;;;21.88;27.83;98289.03;5037415;28;911;-78
2022/09/08 00:24:33;;;;;;;;;;;;;;;22.18;27.26;98285.91;5037394;28;925;-77
2022/09/08 00:26:58;;;;;;;;;;;;;;;22.28;26.93;98287.69;5019220;28;935;-77
2022/09/08 00:29:24;;;;;;;;;;;;;;;22.07;27.15;98285.31;5037394;28;961;-78
2022/09/08 00:31:49;;;;;;;;;;;;;;;21.97;27.69;98280.72;5037077;28;944;-78
2022/09/08 00:34:15;;;;;;;;;;;;;;;21.92;27.57;98284.09;5037787;28;909;-78
2022/09/08 00:36:40;;;;;;;;;;;;;;;21.78;27.58;98279.53;5037499;28;1975;-77
2022/09/08 00:39:06;;;;;;;;;;;;;;;21.79;27.62;98281.13;5036981;28;863;-77
2022/09/08 00:41:31;;;;;;;;;;;;;;;21.90;27.49;98286.53;5037132;28;855;-78
2022/09/08 00:44:01;;;;;;;;;;;;;;;22.17;27.30;98277.81;5037076;28;810;-77
2022/09/08 00:46:27;;;;;;;;;;;;;;;22.49;26.66;98282.72;5037019;28;790;-78
2022/09/08 00:48:54;;;;;;;;;;;;;;;22.10;27.19;98279.59;5019921;28;892;-78
2022/09/08 00:51:19;;;;;;;;;;;;;;;22.06;27.54;98273.19;5037399;28;936;-78
2022/09/08 00:53:45;;;;;;;;;;;;;;;21.69;28.01;98271.63;5019780;28;931;-78
2022/09/08 00:56:10;;;;;;;;;;;;;;;21.75;28.11;98269.88;5019703;28;928;-78
2022/09/08 00:58:36;;;;;;;;;;;;;;;21.64;28.06;98275.00;5019272;28;1887;-78
2022/09/08 01:01:02;;;;;;;;;;;;;;;21.70;28.00;98270.41;5026193;28;1479;-78
2022/09/08 01:03:28;;;;;;;;;;;;;;;22.01;27.49;98258.75;5056727;28;993;-78
2022/09/08 01:05:56;;;;;;;;;;;;;;;22.34;27.11;98277.41;5056943;28;924;-77
2022/09/08 01:14:10;;;;;;;;;;;;;;;21.73;27.89;98265.91;5041246;28;947;-78
2022/09/08 01:16:39;;;;;;;;;;;;;;;21.65;28.03;98270.91;5056419;28;1965;-77
2022/09/08 01:19:05;;;;;;;;;;;;;;;21.90;27.72;98269.53;5056499;28;810;-78
2022/09/08 01:21:39;;;;;;;;;;;;;;;22.30;27.12;98276.69;5038888;28;900;-78
2022/09/08 01:24:25;;;;;;;;;;;;;;;22.46;26.72;98277.91;5038382;28;986;-78
2022/09/08 01:27:23;;;;;;;;;;;;;;;21.99;27.36;98272.56;4994854;28;1025;-78
2022/09/08 01:29:49;;;;;;;;;;;;;;;21.75;27.93;98269.06;4975336;28;1000;-77
2022/09/08 01:32:14;;;;;;;;;;;;;;;21.75;27.80;98269.06;4958916;28;2609;-77
2022/09/08 01:34:41;;;;;;;;;;;;;;;21.66;27.88;98266.88;4975154;28;898;-77
2022/09/08 01:37:06;;;;;;;;;;;;;;;21.66;28.07;98258.38;4975271;28;1986;-78
2022/09/08 01:39:32;;;;;;;;;;;;;;;21.51;28.09;98259.94;4975269;28;988;-77
2022/09/08 01:41:57;;;;;;;;;;;;;;;22.12;27.08;98256.47;4975317;28;929;-78
2022/09/08 01:44:23;;;;;;;;;;;;;;;22.27;27.20;98266.22;4975525;28;1061;-78
2022/09/08 01:46:48;;;;;;;;;;;;;;;22.24;27.06;98261.47;4975352;28;918;-78
2022/09/08 01:49:14;;;;;;;;;;;;;;;21.86;27.74;98263.97;4978406;28;933;-78
2022/09/08 01:51:39;;;;;;;;;;;;;;;21.82;27.70;98266.91;4978886;28;993;-78
2022/09/08 01:54:05;;;;;;;;;;;;;;;21.78;27.69;98257.69;4979129;28;972;-78
2022/09/08 01:56:30;;;;;;;;;;;;;;;21.76;27.98;98265.81;4978985;28;1024;-78
2022/09/08 01:58:55;;;;;;;;;;;;;;;21.69;27.84;98260.31;4978771;28;1910;-78
2022/09/08 02:01:21;;;;;;;;;;;;;;;22.25;26.99;98263.06;4978703;28;1265;-78
2022/09/08 02:03:46;;;;;;;;;;;;;;;22.36;26.95;98263.56;4995732;28;1006;-78
2022/09/08 02:06:12;;;;;;;;;;;;;;;22.20;27.09;98255.06;5053233;28;993;-78
2022/09/08 02:08:37;;;;;;;;;;;;;;;21.96;27.31;98256.44;5060433;28;942;-78
2022/09/08 02:11:03;;;;;;;;;;;;;;;21.78;27.62;98257.69;5059798;28;919;-78
2022/09/08 02:13:29;;;;;;;;;;;;;;;21.90;27.67;98247.69;5059839;28;917;-78
2022/09/08 02:16:01;;;;;;;;;;;;;;;21.70;27.83;98247.75;5059821;28;898;-78
2022/09/08 02:18:30;;;;;;;;;;;;;;;22.01;27.49;98241.75;5041957;28;1981;-78
2022/09/08 02:21:02;;;;;;;;;;;;;;;22.11;27.39;98240.72;5059812;28;1136;-77
2022/09/08 02:23:28;;;;;;;;;;;;;;;22.22;26.82;98235.56;5059813;28;908;-78
2022/09/08 02:25:54;;;;;;;;;;;;;;;21.90;27.58;98241.22;5059624;28;958;-78
2022/09/08 02:28:20;;;;;;;;;;;;;;;21.85;27.67;98232.00;5041751;28;953;-77
2022/09/08 02:30:45;;;;;;;;;;;;;;;21.71;28.03;98235.19;5040606;28;982;-78
2022/09/08 02:33:10;;;;;;;;;;;;;;;22.06;27.25;98236.34;5059362;28;930;-78
2022/09/08 02:35:36;;;;;;;;;;;;;;;22.39;26.81;98244.09;5059368;28;874;-78
2022/09/08 02:38:01;;;;;;;;;;;;;;;22.33;26.82;98236.13;5058996;28;1906;-78
2022/09/08 02:40:27;;;;;;;;;;;;;;;22.24;26.83;98243.66;5059352;28;951;-78
2022/09/08 02:42:53;;;;;;;;;;;;;;;21.92;27.35;98238.75;5059147;28;978;-78
2022/09/08 02:45:18;;;;;;;;;;;;;;;21.90;27.42;98241.22;5058871;28;956;-78
2022/09/08 02:47:44;;;;;;;;;;;;;;;21.79;27.53;98242.28;5059192;28;862;-78
2022/09/08 02:50:09;;;;;;;;;;;;;;;21.73;27.62;98237.56;5024167;28;1022;-78
2022/09/08 02:52:35;;;;;;;;;;;;;;;21.78;27.94;98234.22;5059000;28;1025;-78
2022/09/08 02:55:00;;;;;;;;;;;;;;;22.35;26.69;98233.63;5036581;28;938;-78
2022/09/08 02:57:26;;;;;;;;;;;;;;;22.40;26.63;98228.66;5036635;28;1906;-77
2022/09/08 02:59:51;;;;;;;;;;;;;;;22.19;26.97;98230.81;5018550;28;939;-78
2022/09/08 03:02:17;;;;;;;;;;;;;;;21.96;27.39;98230.94;5003366;28;1050;-78
2022/09/08 03:04:42;;;;;;;;;;;;;;;21.77;27.59;98221.31;4997024;28;996;-78
2022/09/08 03:07:08;;;;;;;;;;;;;;;21.64;27.77;98229.69;4997382;28;938;-80
2022/09/08 03:09:33;;;;;;;;;;;;;;;21.69;27.87;98237.66;4997143;28;1002;-78
2022/09/08 03:11:59;;;;;;;;;;;;;;;21.61;27.84;98230.56;4997026;28;960;-78
2022/09/08 03:14:24;;;;;;;;;;;;;;;22.07;27.14;98234.31;4997058;28;994;-78
2022/09/08 03:16:50;;;;;;;;;;;;;;;21.99;27.31;98221.56;4996968;28;1979;-78
2022/09/08 03:19:15;;;;;;;;;;;;;;;22.15;26.99;98232.16;4996803;28;993;-78
2022/09/08 03:21:41;;;;;;;;;;;;;;;22.08;27.09;98236.72;4997214;28;1298;-78
2022/09/08 03:24:06;;;;;;;;;;;;;;;22.08;27.34;98241.59;4997153;28;1494;-78
2022/09/08 03:26:32;;;;;;;;;;;;;;;21.81;27.74;98239.81;4980852;28;1001;-78
2022/09/08 03:28:57;;;;;;;;;;;;;;;21.81;27.72;98234.16;4996749;28;942;-78
2022/09/08 03:31:23;;;;;;;;;;;;;;;21.78;27.76;98239.88;4997193;28;786;-78
2022/09/08 03:33:48;;;;;;;;;;;;;;;21.74;27.80;98239.97;4997045;28;983;-78
2022/09/08 03:36:14;;;;;;;;;;;;;;;21.82;27.51;98241.41;4996931;28;936;-78
2022/09/08 03:38:39;;;;;;;;;;;;;;;21.95;27.46;98237.84;4996910;28;1907;-78
2022/09/08 03:41:06;;;;;;;;;;;;;;;22.21;26.87;98239.66;4999898;28;933;-78
2022/09/08 03:43:31;;;;;;;;;;;;;;;22.28;26.72;98239.50;5038486;28;855;-78
2022/09/08 03:45:57;;;;;;;;;;;;;;;21.94;27.35;98236.28;5020321;28;996;-78
2022/09/08 03:48:22;;;;;;;;;;;;;;;21.64;27.63;98240.22;5038143;28;849;-78
2022/09/08 03:50:48;;;;;;;;;;;;;;;21.75;27.55;98250.03;5038109;28;873;-78
2022/09/08 03:53:13;;;;;;;;;;;;;;;21.79;27.73;98236.59;5020232;28;1013;-78
2022/09/08 03:55:39;;;;;;;;;;;;;;;21.84;27.70;98243.78;5037964;28;922;-77
2022/09/08 03:58:05;;;;;;;;;;;;;;;22.20;26.89;98237.28;5020029;28;1981;-78
2022/09/08 04:00:30;;;;;;;;;;;;;;;22.38;26.54;98231.94;5020148;28;1060;-78
2022/09/08 04:02:56;;;;;;;;;;;;;;;22.18;27.12;98234.91;5037945;28;967;-78
2022/09/08 04:05:22;;;;;;;;;;;;;;;22.03;27.16;98233.63;5004148;28;910;-78
2022/09/08 04:07:48;;;;;;;;;;;;;;;21.76;27.71;98231.84;5037577;28;984;-78
2022/09/08 04:10:15;;;;;;;;;;;;;;;22.00;27.29;98240.16;5020213;28;874;-78
2022/09/08 04:12:40;;;;;;;;;;;;;;;21.75;27.57;98230.22;5037323;28;899;-78
2022/09/08 04:15:06;;;;;;;;;;;;;;;21.96;27.50;98233.78;5020239;28;1039;-78
2022/09/08 04:17:32;;;;;;;;;;;;;;;22.19;27.13;98232.84;5019994;28;1906;-77
2022/09/08 04:19:57;;;;;;;;;;;;;;;22.10;26.89;98236.28;5037559;28;848;-78
2022/09/08 04:22:23;;;;;;;;;;;;;;;21.88;27.50;98227.50;5020202;28;928;-78
2022/09/08 04:24:48;;;;;;;;;;;;;;;21.91;27.39;98237.94;5019476;28;917;-78
2022/09/08 04:27:14;;;;;;;;;;;;;;;21.70;27.61;98244.09;5019605;28;883;-78
2022/09/08 04:29:39;;;;;;;;;;;;;;;21.72;27.61;98236.78;5037617;28;871;-78
2022/09/08 04:32:07;;;;;;;;;;;;;;;21.74;27.65;98239.97;5037462;28;848;-78
2022/09/08 04:34:32;;;;;;;;;;;;;;;21.89;27.42;98245.28;5037729;28;906;-78
2022/09/08 04:36:58;;;;;;;;;;;;;;;22.27;26.87;98249.22;5036955;28;1902;-78
2022/09/08 04:39:23;;;;;;;;;;;;;;;22.43;26.78;98258.94;5036857;28;861;-78
2022/09/08 04:41:49;;;;;;;;;;;;;;;22.24;26.73;98255.78;5036727;28;956;-79
2022/09/08 04:44:14;;;;;;;;;;;;;;;21.96;27.59;98253.63;5019162;28;1127;-78
2022/09/08 04:46:40;;;;;;;;;;;;;;;21.89;27.58;98250.97;5019443;28;1135;-81
2022/09/08 04:49:05;;;;;;;;;;;;;;;21.79;27.79;98259.25;5019385;28;884;-79
2022/09/08 04:51:31;;;;;;;;;;;;;;;21.83;27.88;98259.19;5018950;28;938;-79
2022/09/08 04:53:57;;;;;;;;;;;;;;;21.71;28.07;98263.50;5019227;28;893;-79
2022/09/08 04:56:22;;;;;;;;;;;;;;;21.68;27.97;98264.38;4995294;28;950;-79
2022/09/08 04:58:48;;;;;;;;;;;;;;;22.04;27.28;98269.22;4994955;28;2000;-79
2022/09/08 05:01:15;;;;;;;;;;;;;;;22.36;27.10;98269.25;4987192;28;1246;-79
2022/09/08 05:03:40;;;;;;;;;;;;;;;22.63;26.69;98270.97;4998366;28;1165;-79
2022/09/08 05:06:06;;;;;;;;;;;;;;;22.41;26.75;98272.78;4998277;28;957;-79
2022/09/08 05:08:32;;;;;;;;;;;;;;;22.13;27.57;98277.94;4998105;28;968;-78
2022/09/08 05:10:58;;;;;;;;;;;;;;;21.96;27.58;98274.25;5014339;28;978;-79
2022/09/08 05:13:24;;;;;;;;;;;;;;;21.84;28.08;98272.91;5009558;28;1176;-79
2022/09/08 05:15:49;;;;;;;;;;;;;;;21.88;27.86;98272.03;5017485;28;1318;-78
2022/09/08 05:18:14;;;;;;;;;;;;;;;21.79;28.00;98269.81;5017715;28;1987;-78
2022/09/08 05:20:40;;;;;;;;;;;;;;;21.82;28.18;98278.22;5034808;28;922;-78
2022/09/08 05:23:05;;;;;;;;;;;;;;;21.86;28.08;98272.47;5034004;28;964;-79
2022/09/08 05:25:31;;;;;;;;;;;;;;;21.71;28.13;98274.84;5017927;28;1116;-78
2022/09/08 05:27:56;;;;;;;;;;;;;;;22.02;27.77;98277.34;5021358;28;1000;-78
2022/09/08 05:30:22;;;;;;;;;;;;;;;22.61;27.03;98276.31;5056753;28;894;-78
2022/09/08 05:32:47;;;;;;;;;;;;;;;22.46;27.17;98266.59;5056542;28;932;-79
2022/09/08 05:35:12;;;;;;;;;;;;;;;22.16;27.64;98276.25;5056779;28;861;-79
2022/09/08 05:37:38;;;;;;;;;;;;;;;22.01;27.81;98278.59;5056450;28;2335;-79
2022/09/08 05:40:04;;;;;;;;;;;;;;;21.70;28.20;98278.88;5022468;28;980;-78
2022/09/08 05:42:30;;;;;;;;;;;;;;;21.84;28.26;98278.56;5039060;28;915;-79
2022/09/08 05:44:55;;;;;;;;;;;;;;;21.87;28.09;98271.25;5056821;28;935;-79
2022/09/08 05:47:20;;;;;;;;;;;;;;;21.81;28.16;98278.66;5056394;28;909;-79
2022/09/08 05:49:46;;;;;;;;;;;;;;;21.82;28.03;98275.41;5056081;28;955;-79
2022/09/08 05:52:12;;;;;;;;;;;;;;;21.94;28.14;98278.78;5056566;28;1105;-78
2022/09/08 05:54:37;;;;;;;;;;;;;;;22.53;27.29;98289.06;5053935;28;908;-79
2022/09/08 05:57:03;;;;;;;;;;;;;;;22.36;27.39;98277.75;5053817;28;1918;-79
2022/09/08 05:59:28;;;;;;;;;;;;;;;22.16;28.00;98282.69;5054327;28;1061;-79
2022/09/08 06:01:54;;;;;;;;;;;;;;;22.08;28.17;98275.59;5067863;28;1229;-79
2022/09/08 06:04:19;;;;;;;;;;;;;;;21.91;28.42;98285.31;5073532;28;863;-79
2022/09/08 06:06:46;;;;;;;;;;;;;;;21.72;28.56;98284.94;5074284;28;993;-79
2022/09/08 06:09:12;;;;;;;;;;;;;;;21.72;28.94;98281.31;5073806;28;1005;-79
2022/09/08 06:11:38;;;;;;;;;;;;;;;21.65;28.96;98275.78;5073934;28;990;-79
2022/09/08 06:14:05;;;;;;;;;;;;;;;21.74;28.53;98290.94;5073741;28;969;-79
2022/09/08 06:16:31;;;;;;;;;;;;;;;21.61;28.94;98277.91;5073791;28;1077;-79
2022/09/08 06:18:56;;;;;;;;;;;;;;;21.65;28.84;98287.09;5073653;28;1973;-79
2022/09/08 06:21:23;;;;;;;;;;;;;;;22.31;27.77;98286.78;5057077;28;992;-79
2022/09/08 06:23:52;;;;;;;;;;;;;;;22.44;27.73;98286.88;5057215;28;1008;-79
2022/09/08 06:26:37;;;;;;;;;;;;;;;22.03;28.24;98284.63;5075308;28;914;-79
2022/09/08 06:29:27;;;;;;;;;;;;;;;21.92;28.45;98292.59;5075866;28;919;-79
2022/09/08 06:31:57;;;;;;;;;;;;;;;21.93;28.49;98291.34;5014163;28;895;-79
2022/09/08 06:34:25;;;;;;;;;;;;;;;21.70;28.75;98284.56;5015260;28;955;-79
2022/09/08 06:36:55;;;;;;;;;;;;;;;21.69;28.92;98288.63;5017426;28;1989;-79
2022/09/08 06:39:24;;;;;;;;;;;;;;;21.69;29.00;98294.28;5017674;28;940;-79
2022/09/08 06:41:52;;;;;;;;;;;;;;;21.81;28.85;98298.47;5017505;28;1089;-79
2022/09/08 06:44:20;;;;;;;;;;;;;;;22.16;28.38;98305.38;5017298;28;914;-80
2022/09/08 06:46:52;;;;;;;;;;;;;;;22.53;27.79;98306.09;5295209;22;3904;-79
2022/09/08 06:52:28;;;;;;;;;;;;;;;23.07;28.91;98306.31;5017350;28;1368;-77
2022/09/08 06:55:14;;;;;;;;;;;;;;;22.71;29.71;98309.28;5018775;28;783;-78
2022/09/08 06:57:55;;;;;;;;;;;;;;;22.35;30.30;98306.53;5020526;28;1902;-78
2022/09/08 07:00:21;;;;;;;;;;;;;;;22.19;30.50;98303.72;5007635;28;1289;-77
2022/09/08 07:02:48;;;;;;;;;;;;;;;22.02;30.79;98312.16;4942835;29;1093;-77
2022/09/08 07:05:19;;;;;;;;;;;;;;;21.98;30.38;98300.13;4926911;29;1102;-77
2022/09/08 07:07:53;;;;;;;;;;;;;;;21.98;30.29;98296.50;4926298;29;995;-77
2022/09/08 07:10:19;;;;;;;;;;;;;;;22.09;29.82;98299.88;4958549;29;905;-78
2022/09/08 07:12:58;;;;;;;;;;;;;;;21.83;30.35;98299.66;4958364;29;808;-77
2022/09/08 07:15:42;;;;;;;;;;;;;;;21.98;29.85;98310.66;4942433;29;803;-77
2022/09/08 07:18:20;;;;;;;;;;;;;;;21.82;29.72;98309.38;4952418;29;1975;-77
2022/09/08 07:20:46;;;;;;;;;;;;;;;21.78;29.66;98307.88;4926461;29;740;-76
2022/09/08 07:23:12;;;;;;;;;;;;;;;21.60;29.82;98308.25;4961058;28;1351;-77
2022/09/08 07:25:50;;;;;;;;;;;;;;;21.77;29.60;98301.41;4961062;28;1362;-76
2022/09/08 07:28:20;;;;;;;;;;;;;;;21.77;29.18;98312.72;4960348;28;1291;-77
2022/09/08 07:30:57;;;;;;;;;;;;;;;21.71;29.34;98313.66;4960965;28;1249;-76
2022/09/08 07:33:24;;;;;;;;;;;;;;;21.71;29.27;98314.50;4967672;28;890;-76
2022/09/08 07:35:52;;;;;;;;;;;;;;;21.73;29.09;98306.34;4996958;28;843;-77
2022/09/08 07:38:36;;;;;;;;;;;;;;;21.85;28.87;98308.50;4996375;28;1910;-78
2022/09/08 07:41:02;;;;;;;;;;;;;;;21.68;29.03;98309.69;4996749;28;1002;-77
2022/09/08 07:43:27;;;;;;;;;;;;;;;21.74;28.82;98312.81;4996444;28;918;-77
2022/09/08 07:46:01;;;;;;;;;;;;;;;21.89;28.93;98318.94;4975839;28;1129;-77
2022/09/08 07:48:29;;;;;;;;;;;;;;;21.74;28.78;98316.44;4960606;28;1370;-76
2022/09/08 07:51:00;;;;;;;;;;;;;;;21.72;28.91;98326.63;4984856;28;1267;-77
2022/09/08 07:53:25;;;;;;;;;;;;;;;21.77;28.77;98321.22;4995758;28;1417;-77
2022/09/08 07:55:51;;;;;;;;;;;;;;;22.11;29.35;98325.75;4995614;28;1246;-76
2022/09/08 07:58:17;;;;;;;;;;;;;;;22.26;28.86;98327.00;4995507;28;1918;-77
2022/09/08 08:00:46;;;;;;;;;;;;;;;22.13;28.85;98328.94;4995732;28;1384;-77
2022/09/08 08:03:29;;;;;;;;;;;;;;;22.04;29.07;98312.50;4976601;28;833;-77
2022/09/08 08:06:15;;;;;;;;;;;;;;;21.75;29.29;98320.06;4976789;28;851;-76
2022/09/08 08:08:41;;;;;;;;;;;;;;;21.87;28.96;98315.78;4960407;28;948;-77
2022/09/08 08:11:25;;;;;;;;;;;;;;;21.81;28.98;98323.97;4991922;28;1082;-76
2022/09/08 08:13:56;;;;;;;;;;;;;;;21.76;29.06;98322.47;4979759;28;921;-77
2022/09/08 08:16:28;;;;;;;;;;;;;;;21.87;28.97;98318.59;4996209;28;835;-77
2022/09/08 08:19:01;;;;;;;;;;;;;;;21.77;28.82;98307.06;4979645;28;1973;-77
2022/09/08 08:21:34;;;;;;;;;;;;;;;21.76;28.78;98307.50;4979726;28;874;-76
2022/09/08 08:23:59;;;;;;;;;;;;;;;21.72;29.08;98310.41;4991859;28;1136;-77
2022/09/08 08:26:36;;;;;;;;;;;;;;;22.08;28.37;98310.41;5021677;28;1131;-76
2022/09/08 08:29:15;;;;;;;;;;;;;;;22.28;27.93;98307.53;5021698;28;1317;-77
2022/09/08 08:32:03;;;;;;;;;;;;;;;22.02;28.10;98305.69;5037452;28;841;-76
2022/09/08 08:34:38;;;;;;;;;;;;;;;21.86;28.55;98309.28;4984448;28;1211;-76
2022/09/08 08:37:04;;;;;;;;;;;;;;;21.91;28.57;98305.13;4983547;28;1910;-76
2022/09/08 08:39:30;;;;;;;;;;;;;;;21.82;28.95;98300.09;4929827;29;1114;-76
2022/09/08 08:42:14;;;;;;;;;;;;;;;21.85;28.75;98308.50;4926564;29;1274;-78
2022/09/08 08:44:45;;;;;;;;;;;;;;;21.78;28.78;98303.00;4921948;29;1251;-78
2022/09/08 08:47:29;;;;;;;;;;;;;;;21.65;28.68;98316.22;4932692;29;1422;-77
2022/09/08 08:50:01;;;;;;;;;;;;;;;21.52;28.97;98313.28;4937664;29;1075;-78
2022/09/08 08:52:31;;;;;;;;;;;;;;;21.68;28.87;98304.03;4937685;29;951;-78
2022/09/08 08:55:04;;;;;;;;;;;;;;;21.67;28.96;98296.78;4937783;29;998;-79
2022/09/08 08:57:41;;;;;;;;;;;;;;;21.81;28.38;98290.81;4936483;29;1903;-78
2022/09/08 09:00:10;;;;;;;;;;;;;;;21.62;28.80;98294.47;4937824;29;987;-78
2022/09/08 09:02:43;;;;;;;;;;;;;;;21.70;28.57;98293.03;4937595;29;1070;-77
2022/09/08 09:05:14;;;;;;;;;;;;;;;22.06;28.18;98292.22;4937376;29;888;-77
2022/09/08 09:07:43;;;;;;;;;;;;;;;22.30;27.96;98287.22;4937310;29;971;-77
2022/09/08 09:10:09;;;;;;;;;;;;;;;22.18;28.03;98290.78;4950919;28;1101;-77
2022/09/08 09:12:34;;;;;;;;;;;;;;;21.96;28.23;98281.94;5015027;28;992;-77
2022/09/08 09:15:06;;;;;;;;;;;;;;;21.99;28.49;98278.25;5017009;28;1053;-77
2022/09/08 09:17:31;;;;;;;;;;;;;;;21.92;28.47;98275.59;5016792;28;1898;-77
2022/09/08 09:20:12;;;;;;;;;;;;;;;21.80;28.44;98275.00;5017165;28;933;-77
2022/09/08 09:22:41;;;;;;;;;;;;;;;21.64;28.59;98272.16;5016972;28;970;-77
2022/09/08 09:25:11;;;;;;;;;;;;;;;21.85;28.36;98280.16;5016726;28;775;-78
2022/09/08 09:27:46;;;;;;;;;;;;;;;21.79;28.70;98259.25;5016478;28;1034;-77
2022/09/08 09:30:12;;;;;;;;;;;;;;;21.74;28.56;98256.16;5014335;28;1033;-77
2022/09/08 09:32:43;;;;;;;;;;;;;;;21.82;28.57;98252.72;5014811;28;943;-78
2022/09/08 09:35:35;;;;;;;;;;;;;;;21.61;28.63;98263.75;5014379;28;1074;-76
2022/09/08 09:38:13;;;;;;;;;;;;;;;22.29;27.93;98262.97;4975560;28;1976;-77
2022/09/08 09:40:56;;;;;;;;;;;;;;;22.01;28.56;98253.09;4975462;28;1023;-77
2022/09/08 09:43:35;;;;;;;;;;;;;;;21.89;28.40;98263.09;4975633;28;942;-77
2022/09/08 09:46:09;;;;;;;;;;;;;;;21.91;28.72;98266.25;4959275;28;904;-78
2022/09/08 09:48:42;;;;;;;;;;;;;;;21.85;28.61;98256.69;4974665;28;1097;-78
2022/09/08 09:51:29;;;;;;;;;;;;;;;21.78;29.00;98263.34;4972946;28;1232;-78
2022/09/08 09:54:14;;;;;;;;;;;;;;;21.81;28.63;98239.81;4941524;28;1284;-77
2022/09/08 09:56:45;;;;;;;;;;;;;;;21.64;28.89;98246.66;4974505;28;1334;-77
2022/09/08 09:59:13;;;;;;;;;;;;;;;21.65;29.12;98251.09;4974713;28;1902;-76
2022/09/08 10:01:50;;;;;;;;;;;;;;;21.92;28.38;98245.22;4961059;28;1342;-76
2022/09/08 10:04:34;;;;;;;;;;;;;;;21.79;28.70;98241.47;4955302;29;1350;-76
2022/09/08 10:06:59;;;;;;;;;;;;;;;21.76;29.00;98240.34;4955374;29;1366;-77
2022/09/08 10:09:43;;;;;;;;;;;;;;;21.87;28.70;98237.25;4956681;28;1313;-76
2022/09/08 10:12:12;;;;;;;;;;;;;;;21.58;29.16;98243.56;4957514;29;1220;-77
2022/09/08 10:14:50;;;;;;;;;;;;;;;21.83;28.70;98228.81;4987912;28;1389;-77
2022/09/08 10:17:34;;;;;;;;;;;;;;;22.23;28.23;98239.25;5010465;28;1918;-78
2022/09/08 10:20:11;;;;;;;;;;;;;;;22.03;28.44;98233.63;5010906;28;1389;-78
2022/09/08 10:22:36;;;;;;;;;;;;;;;22.00;28.60;98234.50;5026848;28;1218;-76
2022/09/08 10:25:14;;;;;;;;;;;;;;;21.78;28.75;98222.91;5027407;28;1242;-77
2022/09/08 10:27:58;;;;;;;;;;;;;;;21.76;29.02;98226.19;5029404;28;1198;-77
2022/09/08 10:30:30;;;;;;;;;;;;;;;21.73;28.81;98237.56;5029061;28;1191;-78
2022/09/08 10:32:58;;;;;;;;;;;;;;;21.61;29.25;98241.91;4997188;28;1258;-77
2022/09/08 10:35:25;;;;;;;;;;;;;;;21.56;29.12;98234.72;4997123;28;1088;-78
2022/09/08 10:37:53;;;;;;;;;;;;;;;21.68;29.07;98236.06;4958577;28;1993;-77
2022/09/08 10:40:34;;;;;;;;;;;;;;;21.76;29.14;98243.16;4958502;29;1255;-77
2022/09/08 10:43:25;;;;;;;;;;;;;;;22.15;28.38;98241.44;4955016;29;1204;-77
2022/09/08 10:45:50;;;;;;;;;;;;;;;22.03;28.67;98237.25;4939845;29;896;-77
2022/09/08 10:48:16;;;;;;;;;;;;;;;21.90;28.93;98230.69;4939671;29;1000;-76
2022/09/08 10:50:51;;;;;;;;;;;;;;;22.01;28.78;98228.38;4939495;29;1265;-78
2022/09/08 10:53:22;;;;;;;;;;;;;;;21.79;29.12;98230.16;4939661;29;1016;-77
2022/09/08 10:55:53;;;;;;;;;;;;;;;21.66;29.05;98221.56;4939580;29;1044;-77
2022/09/08 10:58:21;;;;;;;;;;;;;;;21.72;28.94;98219.78;4939508;29;1907;-78
2022/09/08 11:01:19;;;;;;;;;;;;;;;21.76;29.01;98219.69;4939782;29;927;-77
2022/09/08 11:03:57;;;;;;;;;;;;;;;21.82;28.78;98213.06;4920559;29;988;-77
2022/09/08 11:06:22;;;;;;;;;;;;;;;21.71;29.11;98209.72;4920259;29;1347;-77
2022/09/08 11:09:05;;;;;;;;;;;;;;;22.15;28.52;98213.09;4920520;29;931;-78
2022/09/08 11:11:36;;;;;;;;;;;;;;;22.41;27.76;98213.25;4920384;29;928;-78
2022/09/08 11:14:06;;;;;;;;;;;;;;;22.28;28.28;98216.81;4920579;29;1067;-77
2022/09/08 11:16:40;;;;;;;;;;;;;;;22.16;28.34;98220.34;4920305;29;1362;-78
2022/09/08 11:19:06;;;;;;;;;;;;;;;21.83;28.85;98209.00;4920371;29;1915;-77
2022/09/08 11:21:34;;;;;;;;;;;;;;;21.94;28.74;98219.28;4919241;29;1019;-78
2022/09/08 11:24:37;;;;;;;;;;;;;;;21.79;28.81;98221.66;4920366;29;1011;-77
2022/09/08 11:27:23;;;;;;;;;;;;;;;21.68;28.97;98223.94;4882731;29;984;-77
2022/09/08 11:30:00;;;;;;;;;;;;;;;21.68;28.98;98213.41;4882325;29;1038;-77
2022/09/08 11:32:36;;;;;;;;;;;;;;;21.84;28.78;98216.25;4882204;29;1026;-77
2022/09/08 11:35:06;;;;;;;;;;;;;;;21.67;29.03;98211.81;4882512;29;926;-77
2022/09/08 11:37:50;;;;;;;;;;;;;;;21.71;28.86;98206.06;4882475;29;1910;-77
2022/09/08 11:40:18;;;;;;;;;;;;;;;21.77;28.74;98204.31;4915517;29;1017;-77
2022/09/08 11:42:43;;;;;;;;;;;;;;;21.96;28.73;98199.78;4920107;29;890;-78
2022/09/08 11:45:13;;;;;;;;;;;;;;;22.31;28.05;98207.41;4919708;29;1009;-77
2022/09/08 11:47:38;;;;;;;;;;;;;;;22.23;28.15;98208.84;4919651;29;868;-77
2022/09/08 11:50:24;;;;;;;;;;;;;;;21.95;28.58;98195.38;4921583;29;1187;-78
2022/09/08 11:52:50;;;;;;;;;;;;;;;22.01;28.55;98207.75;4938595;29;1121;-78
2022/09/08 11:55:24;;;;;;;;;;;;;;;21.85;28.85;98189.50;4938418;29;969;-77
2022/09/08 11:58:05;;;;;;;;;;;;;;;21.89;28.64;98194.31;4969709;28;1906;-77
2022/09/08 12:00:37;;;;;;;;;;;;;;;21.87;28.83;98208.13;4998759;28;926;-77
2022/09/08 12:03:06;;;;;;;;;;;;;;;21.75;28.94;98201.91;4998726;28;1077;-78
2022/09/08 12:05:50;;;;;;;;;;;;;;;21.68;29.15;98196.41;4998525;28;894;-78
2022/09/08 12:08:27;;;;;;;;;;;;;;;21.71;29.18;98195.53;4998489;28;987;-78
2022/09/08 12:10:56;;;;;;;;;;;;;;;21.68;28.84;98207.75;4998418;28;1072;-78
2022/09/08 12:13:30;;;;;;;;;;;;;;;22.23;28.23;98208.06;4998364;28;908;-77
2022/09/08 12:15:59;;;;;;;;;;;;;;;22.47;28.11;98205.78;4998050;28;879;-77
2022/09/08 12:18:28;;;;;;;;;;;;;;;21.97;28.74;98204.22;4998163;28;1977;-77
2022/09/08 12:21:03;;;;;;;;;;;;;;;21.88;28.63;98198.38;5013152;28;881;-78
2022/09/08 12:23:34;;;;;;;;;;;;;;;22.00;28.51;98192.78;5014888;28;895;-77
2022/09/08 12:26:19;;;;;;;;;;;;;;;21.81;28.76;98194.50;5029048;28;1163;-78
2022/09/08 12:28:48;;;;;;;;;;;;;;;21.76;29.11;98192.19;5036881;28;1222;-77
2022/09/08 12:31:16;;;;;;;;;;;;;;;21.73;29.07;98195.09;5019136;28;1381;-78
2022/09/08 12:34:00;;;;;;;;;;;;;;;21.81;28.99;98194.50;5036243;28;1214;-77
2022/09/08 12:36:32;;;;;;;;;;;;;;;21.75;28.71;98195.44;5034663;28;1233;-77
2022/09/08 12:39:02;;;;;;;;;;;;;;;22.05;28.76;98191.47;5036536;28;1914;-78
2022/09/08 12:41:46;;;;;;;;;;;;;;;22.26;28.03;98193.78;5019663;28;912;-77
2022/09/08 12:44:23;;;;;;;;;;;;;;;22.13;28.13;98190.09;4976104;28;923;-78
2022/09/08 12:47:08;;;;;;;;;;;;;;;21.85;28.94;98181.00;4976073;28;953;-78
2022/09/08 12:49:38;;;;;;;;;;;;;;;21.88;28.56;98192.72;4976445;28;1175;-78
2022/09/08 12:52:08;;;;;;;;;;;;;;;21.76;29.08;98180.84;4975803;28;2198;-77
2022/09/08 12:54:39;;;;;;;;;;;;;;;21.81;28.75;98176.66;4992120;28;1037;-77
2022/09/08 12:57:29;;;;;;;;;;;;;;;21.69;29.03;98186.69;4975804;28;1910;-78
2022/09/08 13:00:08;;;;;;;;;;;;;;;21.77;28.65;98188.09;4984942;28;935;-78
2022/09/08 13:02:51;;;;;;;;;;;;;;;21.84;28.69;98187.13;4991886;28;915;-78
2022/09/08 13:05:35;;;;;;;;;;;;;;;22.23;28.07;98197.50;4976052;28;976;-77
2022/09/08 13:08:03;;;;;;;;;;;;;;;22.34;27.83;98198.03;4969750;28;1073;-78
2022/09/08 13:10:39;;;;;;;;;;;;;;;22.16;28.40;98186.34;4987780;28;1266;-78
2022/09/08 13:13:23;;;;;;;;;;;;;;;21.92;28.55;98182.09;4997632;28;1282;-78
2022/09/08 13:15:53;;;;;;;;;;;;;;;21.81;28.75;98186.00;5020626;28;1251;-78
2022/09/08 13:18:19;;;;;;;;;;;;;;;21.88;28.47;98187.06;5025891;28;1902;-77
2022/09/08 13:20:50;;;;;;;;;;;;;;;21.84;28.86;98187.94;5036136;28;1285;-78
2022/09/08 13:23:15;;;;;;;;;;;;;;;21.92;28.52;98184.94;5026627;28;1333;-77
2022/09/08 13:25:54;;;;;;;;;;;;;;;21.80;28.90;98181.53;5036071;28;1320;-78